createdAt,value
2018-03-06T00:00:29.927Z,0.75
2018-03-06T00:01:33.801Z,0.90
2018-03-06T00:02:37.330Z,0.90
2018-03-06T00:03:40.821Z,0.84
2018-03-06T00:04:44.602Z,0.79
2018-03-06T00:05:48.937Z,0.76
2018-03-06T00:06:53.189Z,0.83
2018-03-06T00:07:57.894Z,0.87
2018-03-06T00:09:01.302Z,0.83
2018-03-06T00:10:04.705Z,0.91
2018-03-06T00:11:08.102Z,1.00
2018-03-06T00:12:12.160Z,1.04
2018-03-06T00:13:17.023Z,1.10
2018-03-06T00:14:21.582Z,1.06
2018-03-06T00:15:25.168Z,1.05
2018-03-06T00:16:28.656Z,1.12
2018-03-06T00:17:32.394Z,1.05
2018-03-06T00:18:35.927Z,1.07
2018-03-06T00:19:39.762Z,1.10
2018-03-06T00:20:44.010Z,1.10
2018-03-06T00:21:47.803Z,1.18
2018-03-06T00:22:51.552Z,1.32
2018-03-06T00:23:55.154Z,1.47
2018-03-06T00:24:58.915Z,1.63
2018-03-06T00:26:02.762Z,1.73
2018-03-06T00:27:07.413Z,1.74
2018-03-06T00:28:11.161Z,1.69
2018-03-06T00:29:15.646Z,1.63
2018-03-06T00:30:20.849Z,1.53
2018-03-06T00:31:24.858Z,1.49
2018-03-06T00:32:28.549Z,1.53
2018-03-06T00:33:33.160Z,1.53
2018-03-06T00:34:37.078Z,1.48
2018-03-06T00:35:40.890Z,1.38
2018-03-06T00:36:44.737Z,1.45
2018-03-06T00:37:50.982Z,1.49
2018-03-06T00:38:55.859Z,1.56
2018-03-06T00:40:00.186Z,1.67
2018-03-06T00:41:05.186Z,1.82
2018-03-06T00:42:09.542Z,1.78
2018-03-06T00:43:13.152Z,1.57
2018-03-06T00:44:16.768Z,1.48
2018-03-06T00:45:20.848Z,1.54
2018-03-06T00:46:24.496Z,1.63
2018-03-06T00:47:28.799Z,1.69
2018-03-06T00:48:33.585Z,1.77
2018-03-06T00:49:38.383Z,1.79
2018-03-06T00:50:42.809Z,1.77
2018-03-06T00:51:47.303Z,1.79
2018-03-06T00:52:51.034Z,1.69
2018-03-06T00:53:54.868Z,1.75
2018-03-06T00:54:58.603Z,1.74
2018-03-06T00:56:02.705Z,1.70
2018-03-06T00:57:06.958Z,1.72
2018-03-06T00:58:11.142Z,1.73
2018-03-06T00:59:15.104Z,1.76
2018-03-06T01:00:18.725Z,1.80
2018-03-06T01:01:22.485Z,1.90
2018-03-06T01:02:26.664Z,1.99
2018-03-06T01:03:30.634Z,1.93
2018-03-06T01:04:34.640Z,1.81
2018-03-06T01:05:38.598Z,1.67
2018-03-06T01:06:43.095Z,1.50
2018-03-06T01:07:47.061Z,1.45
2018-03-06T01:08:50.574Z,1.42
2018-03-06T01:09:55.538Z,1.48
2018-03-06T01:10:59.407Z,1.42
2018-03-06T01:12:03.444Z,1.41
2018-03-06T01:13:07.331Z,1.33
2018-03-06T01:14:11.026Z,1.28
2018-03-06T01:15:15.628Z,1.28
2018-03-06T01:16:20.698Z,1.20
2018-03-06T01:17:25.053Z,1.03
2018-03-06T01:18:28.480Z,0.95
2018-03-06T01:19:32.423Z,0.87
2018-03-06T01:20:36.089Z,0.80
2018-03-06T01:21:40.163Z,0.81
2018-03-06T01:22:44.191Z,0.89
2018-03-06T01:23:48.601Z,0.87
2018-03-06T01:24:53.998Z,0.81
2018-03-06T01:25:57.775Z,0.95
2018-03-06T01:27:02.315Z,0.98
2018-03-06T01:28:06.142Z,1.00
2018-03-06T01:29:09.948Z,0.97
2018-03-06T01:30:13.667Z,1.02
2018-03-06T01:31:17.744Z,1.13
2018-03-06T01:32:22.267Z,1.24
2018-03-06T01:33:26.349Z,1.22
2018-03-06T01:34:32.286Z,1.23
2018-03-06T01:35:37.108Z,1.23
2018-03-06T01:36:42.013Z,1.20
2018-03-06T01:37:45.347Z,1.23
2018-03-06T01:38:49.013Z,1.05
2018-03-06T01:39:52.503Z,0.92
2018-03-06T01:40:55.955Z,0.76
2018-03-06T01:41:59.786Z,0.48
2018-03-06T01:43:04.504Z,0.41
2018-03-06T01:44:10.836Z,0.33
2018-03-06T01:45:14.901Z,0.30
2018-03-06T01:46:18.237Z,0.28
2018-03-06T01:47:21.975Z,0.29
2018-03-06T01:48:25.890Z,0.33
2018-03-06T01:49:29.542Z,0.38
2018-03-06T01:50:33.665Z,0.45
2018-03-06T01:51:38.318Z,0.42
2018-03-06T01:52:43.432Z,0.45
2018-03-06T01:53:47.965Z,0.45
2018-03-06T01:54:53.040Z,0.51
2018-03-06T01:55:57.583Z,0.55
2018-03-06T01:57:02.870Z,0.47
2018-03-06T01:58:08.459Z,0.42
2018-03-06T01:59:12.300Z,0.44
2018-03-06T02:00:16.061Z,0.46
2018-03-06T02:01:20.124Z,0.51
2018-03-06T02:02:23.626Z,0.63
2018-03-06T02:03:27.404Z,0.53
2018-03-06T02:04:31.478Z,0.60
2018-03-06T02:05:36.670Z,0.68
2018-03-06T02:06:42.209Z,0.74
2018-03-06T02:07:47.380Z,0.68
2018-03-06T02:08:51.578Z,0.67
2018-03-06T02:09:55.591Z,0.60
2018-03-06T02:10:59.600Z,0.50
2018-03-06T02:12:02.849Z,0.55
2018-03-06T02:13:06.274Z,0.52
2018-03-06T02:14:11.177Z,0.48
2018-03-06T02:15:15.358Z,0.41
2018-03-06T02:16:20.426Z,0.38
2018-03-06T02:17:24.368Z,0.32
2018-03-06T02:18:28.068Z,0.33
2018-03-06T02:19:31.595Z,0.34
2018-03-06T02:20:35.048Z,0.33
2018-03-06T02:21:38.837Z,0.33
2018-03-06T02:22:43.041Z,0.38
2018-03-06T02:23:49.277Z,0.38
2018-03-06T02:24:54.358Z,0.40
2018-03-06T02:25:59.279Z,0.51
2018-03-06T02:27:03.592Z,0.73
2018-03-06T02:28:07.452Z,0.80
2018-03-06T02:29:11.336Z,0.86
2018-03-06T02:30:14.902Z,0.78
2018-03-06T02:31:18.236Z,0.76
2018-03-06T02:32:22.248Z,0.78
2018-03-06T02:33:27.172Z,0.72
2018-03-06T02:34:32.294Z,0.60
2018-03-06T02:35:35.752Z,0.59
2018-03-06T02:36:39.004Z,0.71
2018-03-06T02:37:42.312Z,0.85
2018-03-06T02:38:45.452Z,0.91
2018-03-06T02:39:49.691Z,0.91
2018-03-06T02:40:54.335Z,0.90
2018-03-06T02:41:58.806Z,0.88
2018-03-06T02:43:02.336Z,0.84
2018-03-06T02:44:05.654Z,0.94
2018-03-06T02:45:08.886Z,0.97
2018-03-06T02:46:12.775Z,0.95
2018-03-06T02:47:16.733Z,0.70
2018-03-06T02:48:20.290Z,0.70
2018-03-06T02:49:23.580Z,0.79
2018-03-06T02:50:26.809Z,0.78
2018-03-06T02:51:30.032Z,0.76
2018-03-06T02:52:34.759Z,0.83
2018-03-06T02:53:39.505Z,0.93
2018-03-06T02:54:43.563Z,0.98
2018-03-06T02:55:46.831Z,0.92
2018-03-06T02:58:04.031Z,0.99
2018-03-06T02:59:08.748Z,0.98
2018-03-06T03:00:14.179Z,0.94
2018-03-06T03:01:19.036Z,0.94
2018-03-06T03:02:23.618Z,0.92
2018-03-06T03:03:26.698Z,0.85
2018-03-06T03:04:29.822Z,0.77
2018-03-06T03:05:33.490Z,0.74
2018-03-06T03:06:36.786Z,0.77
2018-03-06T03:07:41.091Z,0.90
2018-03-06T03:08:45.393Z,0.90
2018-03-06T03:09:48.869Z,0.91
2018-03-06T03:10:52.084Z,0.94
2018-03-06T03:11:55.798Z,1.02
2018-03-06T03:12:59.050Z,1.09
2018-03-06T03:14:02.860Z,0.96
2018-03-06T03:15:06.858Z,0.89
2018-03-06T03:16:10.420Z,0.78
2018-03-06T03:17:13.526Z,0.76
2018-03-06T03:18:17.128Z,0.80
2018-03-06T03:19:20.629Z,0.86
2018-03-06T03:20:25.269Z,0.93
2018-03-06T03:21:29.973Z,1.01
2018-03-06T03:22:34.958Z,1.04
2018-03-06T03:23:38.190Z,1.02
2018-03-06T03:24:41.769Z,0.99
2018-03-06T03:25:45.065Z,0.99
2018-03-06T03:26:48.754Z,0.99
2018-03-06T03:27:52.358Z,0.85
2018-03-06T03:28:56.022Z,0.86
2018-03-06T03:29:59.169Z,0.84
2018-03-06T03:31:03.173Z,0.89
2018-03-06T03:32:06.466Z,0.88
2018-03-06T03:33:09.839Z,0.93
2018-03-06T03:34:13.543Z,0.94
2018-03-06T03:35:16.778Z,0.85
2018-03-06T03:36:19.954Z,0.74
2018-03-06T03:37:23.581Z,0.62
2018-03-06T03:38:27.071Z,0.46
2018-03-06T03:39:32.469Z,0.38
2018-03-06T03:40:37.695Z,0.29
2018-03-06T03:41:42.269Z,0.18
2018-03-06T03:42:46.740Z,0.09
2018-03-06T03:43:51.006Z,0.14
2018-03-06T03:44:54.474Z,0.29
2018-03-06T03:45:57.619Z,0.35
2018-03-06T03:47:01.193Z,0.33
2018-03-06T03:48:05.877Z,0.30
2018-03-06T03:49:10.511Z,0.41
2018-03-06T03:50:14.869Z,0.49
2018-03-06T03:51:19.048Z,0.45
2018-03-06T03:52:22.402Z,0.28
2018-03-06T03:53:25.939Z,0.26
2018-03-06T03:54:29.136Z,0.26
2018-03-06T03:55:32.737Z,0.23
2018-03-06T03:56:36.797Z,0.22
2018-03-06T03:57:40.981Z,0.28
2018-03-06T03:58:44.502Z,0.40
2018-03-06T03:59:47.693Z,0.54
2018-03-06T04:00:50.831Z,0.62
2018-03-06T04:01:54.186Z,0.70
2018-03-06T04:02:58.929Z,0.68
2018-03-06T04:04:03.596Z,0.68
2018-03-06T04:05:07.072Z,0.52
2018-03-06T04:06:10.170Z,0.38
2018-03-06T04:07:13.291Z,0.28
2018-03-06T04:08:16.595Z,0.17
2018-03-06T04:09:21.667Z,0.13
2018-03-06T04:10:25.261Z,0.13
2018-03-06T04:11:28.479Z,0.10
2018-03-06T04:12:31.992Z,0.14
2018-03-06T04:13:35.126Z,0.21
2018-03-06T04:14:38.647Z,0.28
2018-03-06T04:15:43.166Z,0.27
2018-03-06T04:16:47.488Z,0.12
2018-03-06T04:17:51.317Z,0.04
2018-03-06T04:18:54.521Z,0.04
2018-03-06T04:19:57.853Z,0.13
2018-03-06T04:21:02.019Z,0.24
2018-03-06T04:22:06.146Z,0.27
2018-03-06T04:23:10.229Z,0.29
2018-03-06T04:24:13.896Z,0.40
2018-03-06T04:25:17.468Z,0.50
2018-03-06T04:26:20.752Z,0.51
2018-03-06T04:27:23.792Z,0.47
2018-03-06T04:28:28.139Z,0.39
2018-03-06T04:29:32.358Z,0.48
2018-03-06T04:30:39.352Z,0.50
2018-03-06T04:31:42.541Z,0.46
2018-03-06T04:32:47.458Z,0.30
2018-03-06T04:33:52.810Z,0.13
2018-03-06T04:34:57.054Z,0.04
2018-03-06T04:36:00.479Z,0.18
2018-03-06T04:37:03.797Z,0.08
2018-03-06T04:38:06.924Z,0.10
2018-03-06T04:39:10.199Z,0.11
2018-03-06T04:40:16.516Z,0.10
2018-03-06T04:41:21.132Z,0.19
2018-03-06T04:42:25.358Z,0.28
2018-03-06T04:43:31.057Z,0.31
2018-03-06T04:44:34.701Z,0.28
2018-03-06T04:45:38.162Z,0.30
2018-03-06T04:46:41.494Z,0.37
2018-03-06T04:47:44.655Z,0.30
2018-03-06T04:48:48.128Z,0.29
2018-03-06T04:49:53.044Z,0.35
2018-03-06T04:50:57.800Z,0.39
2018-03-06T04:52:01.690Z,0.34
2018-03-06T04:53:04.880Z,0.20
2018-03-06T04:54:09.103Z,0.15
2018-03-06T04:55:12.413Z,0.25
2018-03-06T04:56:15.718Z,0.29
2018-03-06T04:57:19.454Z,0.30
2018-03-06T04:58:25.118Z,0.34
2018-03-06T04:59:29.708Z,0.42
2018-03-06T05:00:34.399Z,0.39
2018-03-06T05:01:37.971Z,0.46
2018-03-06T05:02:41.347Z,0.55
2018-03-06T05:03:44.617Z,0.47
2018-03-06T05:04:47.974Z,0.49
2018-03-06T05:05:52.318Z,0.47
2018-03-06T05:06:57.043Z,0.41
2018-03-06T05:08:00.981Z,0.37
2018-03-06T05:09:04.266Z,0.31
2018-03-06T05:10:07.511Z,0.23
2018-03-06T05:11:10.979Z,0.18
2018-03-06T05:12:14.652Z,0.24
2018-03-06T05:13:18.651Z,0.24
2018-03-06T05:14:22.726Z,0.18
2018-03-06T05:15:26.422Z,0.18
2018-03-06T05:16:30.298Z,0.19
2018-03-06T05:17:33.400Z,0.20
2018-03-06T05:18:36.889Z,0.19
2018-03-06T05:19:41.226Z,0.22
2018-03-06T05:20:46.397Z,0.27
2018-03-06T05:21:50.642Z,0.33
2018-03-06T05:22:55.265Z,0.34
2018-03-06T05:23:58.851Z,0.46
2018-03-06T05:25:02.457Z,0.50
2018-03-06T05:26:06.217Z,0.45
2018-03-06T05:27:09.652Z,0.45
2018-03-06T05:28:13.595Z,0.49
2018-03-06T05:29:18.245Z,0.51
2018-03-06T05:30:21.912Z,0.52
2018-03-06T05:31:25.387Z,0.50
2018-03-06T05:32:30.244Z,0.51
2018-03-06T05:33:33.859Z,0.48
2018-03-06T05:34:37.492Z,0.54
2018-03-06T05:35:42.387Z,0.55
2018-03-06T05:36:46.266Z,0.57
2018-03-06T05:37:51.701Z,0.58
2018-03-06T05:38:56.916Z,0.57
2018-03-06T05:40:01.457Z,0.58
2018-03-06T05:41:05.395Z,0.48
2018-03-06T05:42:09.171Z,0.48
2018-03-06T05:43:13.022Z,0.36
2018-03-06T05:44:16.598Z,0.34
2018-03-06T05:45:20.998Z,0.31
2018-03-06T05:46:25.589Z,0.33
2018-03-06T05:47:30.826Z,0.42
2018-03-06T05:48:37.894Z,0.45
2018-03-06T05:49:41.840Z,0.48
2018-03-06T05:50:46.581Z,0.47
2018-03-06T05:51:53.147Z,0.43
2018-03-06T05:52:58.525Z,0.41
2018-03-06T05:54:03.036Z,0.42
2018-03-06T05:55:07.525Z,0.45
2018-03-06T05:56:11.980Z,0.42
2018-03-06T05:57:15.664Z,0.37
2018-03-06T05:58:19.677Z,0.34
2018-03-06T05:59:23.551Z,0.33
2018-03-06T06:00:27.278Z,0.28
2018-03-06T06:01:31.421Z,0.21
2018-03-06T06:02:35.462Z,0.22
2018-03-06T06:03:39.257Z,0.29
2018-03-06T06:04:43.198Z,0.05
2018-03-06T06:05:46.926Z,-0.18
2018-03-06T06:06:50.629Z,-0.34
2018-03-06T06:07:55.251Z,-0.36
2018-03-06T06:08:59.325Z,-0.29
2018-03-06T06:10:03.471Z,-0.11
2018-03-06T06:11:08.273Z,-0.03
2018-03-06T06:12:12.959Z,0.08
2018-03-06T06:13:17.137Z,0.13
2018-03-06T06:14:20.705Z,0.15
2018-03-06T06:15:24.344Z,0.30
2018-03-06T06:16:28.007Z,0.34
2018-03-06T06:17:32.840Z,0.30
2018-03-06T06:18:37.030Z,0.23
2018-03-06T06:19:41.451Z,0.28
2018-03-06T06:20:45.696Z,0.29
2018-03-06T06:21:49.176Z,0.37
2018-03-06T06:22:52.863Z,0.46
2018-03-06T06:23:56.791Z,0.52
2018-03-06T06:25:00.595Z,0.56
2018-03-06T06:26:05.111Z,0.69
2018-03-06T06:27:09.255Z,0.68
2018-03-06T06:28:13.940Z,0.73
2018-03-06T06:29:17.483Z,0.75
2018-03-06T06:30:21.539Z,0.58
2018-03-06T06:31:25.127Z,0.52
2018-03-06T06:32:28.671Z,0.43
2018-03-06T06:33:33.711Z,0.42
2018-03-06T06:34:37.694Z,0.42
2018-03-06T06:35:41.711Z,0.57
2018-03-06T06:36:45.816Z,0.72
2018-03-06T06:37:49.553Z,0.80
2018-03-06T06:38:53.126Z,0.93
2018-03-06T06:39:56.851Z,1.08
2018-03-06T06:41:00.859Z,1.09
2018-03-06T06:42:04.866Z,1.18
2018-03-06T06:43:10.081Z,1.24
2018-03-06T06:44:14.312Z,1.41
2018-03-06T06:45:19.504Z,1.54
2018-03-06T06:46:23.387Z,1.64
2018-03-06T06:47:27.199Z,1.76
2018-03-06T06:48:31.055Z,1.82
2018-03-06T06:49:35.139Z,1.87
2018-03-06T06:50:38.962Z,1.92
2018-03-06T06:51:43.196Z,1.95
2018-03-06T06:52:48.341Z,1.96
2018-03-06T06:53:52.582Z,1.98
2018-03-06T06:54:56.356Z,1.89
2018-03-06T06:56:00.286Z,1.88
2018-03-06T06:57:03.776Z,1.86
2018-03-06T06:58:09.055Z,2.00
2018-03-06T06:59:13.204Z,2.27
2018-03-06T07:00:18.151Z,2.53
2018-03-06T07:01:22.609Z,2.63
2018-03-06T07:02:30.027Z,2.62
2018-03-06T07:03:34.608Z,2.80
2018-03-06T07:04:38.633Z,3.03
2018-03-06T07:05:43.013Z,3.04
2018-03-06T07:06:47.041Z,2.87
2018-03-06T07:07:50.424Z,2.72
2018-03-06T07:08:54.464Z,2.90
2018-03-06T07:09:58.261Z,2.99
2018-03-06T07:17:21.068Z,4.00
2018-03-06T07:28:46.750Z,3.31
2018-03-06T07:37:24.323Z,3.44
2018-03-06T07:47:45.264Z,3.61
2018-03-06T07:52:18.267Z,3.66
2018-03-06T07:54:55.420Z,3.61
2018-03-06T07:56:02.364Z,3.68
2018-03-06T08:00:21.327Z,3.69
2018-03-06T08:04:29.271Z,4.57
2018-03-06T08:05:36.920Z,4.68
2018-03-06T08:09:56.275Z,5.47
2018-03-06T08:11:01.228Z,5.71
2018-03-06T08:12:07.054Z,5.99
2018-03-06T08:13:11.143Z,6.10
2018-03-06T08:17:19.013Z,7.15
2018-03-06T08:21:38.138Z,6.82
2018-03-06T08:25:56.572Z,7.64
2018-03-06T08:33:17.224Z,9.02
2018-03-06T08:34:20.872Z,9.54
2018-03-06T08:35:24.353Z,9.68
2018-03-06T08:36:28.351Z,9.53
2018-03-06T08:37:32.271Z,9.00
2018-03-06T08:38:35.654Z,8.82
2018-03-06T08:39:39.464Z,8.76
2018-03-06T08:40:42.965Z,8.69
2018-03-06T08:41:47.548Z,8.88
2018-03-06T08:42:52.984Z,9.21
2018-03-06T08:43:57.995Z,9.26
2018-03-06T08:45:02.054Z,9.01
2018-03-06T08:46:06.429Z,8.97
2018-03-06T08:47:10.024Z,9.16
2018-03-06T08:48:13.445Z,9.22
2018-03-06T08:49:16.906Z,9.57
2018-03-06T08:50:20.536Z,9.82
2018-03-06T08:51:24.674Z,9.23
2018-03-06T08:52:29.012Z,9.06
2018-03-06T08:53:32.731Z,9.27
2018-03-06T08:54:36.509Z,9.38
2018-03-06T08:55:40.075Z,9.57
2018-03-06T08:56:43.514Z,9.77
2018-03-06T08:57:47.846Z,10.22
2018-03-06T08:58:51.906Z,10.73
2018-03-06T08:59:56.137Z,10.92
2018-03-06T09:00:59.873Z,11.06
2018-03-06T09:02:03.366Z,11.02
2018-03-06T09:03:06.931Z,10.95
2018-03-06T09:04:11.136Z,11.07
2018-03-06T09:05:15.765Z,11.29
2018-03-06T09:06:20.596Z,11.73
2018-03-06T09:07:25.134Z,12.05
2018-03-06T09:08:29.104Z,12.17
2018-03-06T09:09:32.771Z,12.24
2018-03-06T09:10:36.682Z,12.37
2018-03-06T09:11:40.131Z,12.42
2018-03-06T09:12:43.590Z,11.99
2018-03-06T09:13:48.401Z,12.22
2018-03-06T09:14:52.150Z,12.42
2018-03-06T09:15:55.898Z,12.61
2018-03-06T09:17:00.100Z,12.49
2018-03-06T09:18:03.643Z,11.82
2018-03-06T09:19:07.308Z,11.29
2018-03-06T09:20:11.210Z,11.55
2018-03-06T09:21:15.078Z,11.95
2018-03-06T09:22:19.149Z,12.36
2018-03-06T09:23:22.909Z,12.54
2018-03-06T09:24:26.854Z,12.79
2018-03-06T09:25:30.197Z,13.00
2018-03-06T09:26:34.733Z,12.94
2018-03-06T09:27:38.501Z,12.65
2018-03-06T09:28:42.406Z,12.10
2018-03-06T09:29:47.009Z,11.80
2018-03-06T09:30:50.398Z,11.45
2018-03-06T09:31:53.951Z,11.31
2018-03-06T09:32:57.367Z,10.98
2018-03-06T09:34:00.932Z,11.63
2018-03-06T09:35:04.989Z,12.06
2018-03-06T09:36:09.129Z,12.90
2018-03-06T09:37:12.828Z,13.42
2018-03-06T09:38:16.214Z,13.37
2018-03-06T09:39:19.565Z,13.15
2018-03-06T09:40:23.078Z,13.13
2018-03-06T09:41:26.841Z,13.30
2018-03-06T09:42:31.284Z,13.04
2018-03-06T09:43:35.441Z,12.76
2018-03-06T09:44:39.187Z,12.43
2018-03-06T09:45:42.813Z,12.38
2018-03-06T09:46:46.517Z,12.45
2018-03-06T09:47:50.072Z,12.70
2018-03-06T09:48:57.188Z,12.75
2018-03-06T09:50:00.669Z,12.73
2018-03-06T09:51:05.173Z,12.81
2018-03-06T09:52:09.143Z,12.75
2018-03-06T09:53:12.812Z,12.96
2018-03-06T09:54:16.367Z,12.52
2018-03-06T09:55:21.166Z,12.16
2018-03-06T09:56:30.556Z,12.50
2018-03-06T09:57:34.866Z,12.83
2018-03-06T09:58:38.986Z,13.00
2018-03-06T09:59:42.949Z,12.71
2018-03-06T10:00:46.616Z,13.33
2018-03-06T10:01:52.249Z,13.13
2018-03-06T10:02:56.229Z,13.02
2018-03-06T10:04:00.261Z,13.45
2018-03-06T10:06:12.850Z,14.35
2018-03-06T10:07:18.496Z,14.99
2018-03-06T10:08:23.910Z,14.81
2018-03-06T10:09:28.515Z,13.67
2018-03-06T10:10:33.201Z,14.00
2018-03-06T10:11:36.966Z,14.40
2018-03-06T10:12:40.604Z,13.85
2018-03-06T10:13:44.087Z,13.92
2018-03-06T10:14:48.037Z,14.22
2018-03-06T10:15:52.018Z,14.61
2018-03-06T10:16:56.201Z,15.16
2018-03-06T10:18:00.379Z,15.41
2018-03-06T10:19:04.019Z,15.48
2018-03-06T10:20:07.505Z,15.87
2018-03-06T10:21:11.358Z,16.34
2018-03-06T10:22:14.639Z,16.61
2018-03-06T10:23:19.993Z,16.64
2018-03-06T10:24:23.980Z,15.53
2018-03-06T10:25:28.522Z,15.11
2018-03-06T10:26:32.585Z,14.75
2018-03-06T10:27:37.281Z,14.54
2018-03-06T10:28:40.949Z,15.16
2018-03-06T10:29:44.693Z,14.66
2018-03-06T10:30:48.377Z,14.12
2018-03-06T10:31:52.041Z,13.95
2018-03-06T10:32:56.589Z,13.99
2018-03-06T10:34:01.841Z,13.89
2018-03-06T10:35:07.301Z,14.43
2018-03-06T10:36:12.255Z,14.32
2018-03-06T10:37:17.326Z,14.38
2018-03-06T10:38:21.211Z,14.53
2018-03-06T10:39:25.457Z,14.58
2018-03-06T10:40:29.472Z,13.83
2018-03-06T10:41:33.123Z,14.67
2018-03-06T10:42:36.589Z,15.17
2018-03-06T10:43:40.374Z,14.95
2018-03-06T10:44:44.494Z,15.23
2018-03-06T10:45:49.363Z,15.63
2018-03-06T10:46:55.497Z,15.27
2018-03-06T10:47:59.268Z,15.60
2018-03-06T10:49:02.707Z,15.53
2018-03-06T10:50:06.103Z,15.94
2018-03-06T10:51:09.636Z,15.47
2018-03-06T10:52:13.406Z,13.75
2018-03-06T10:53:18.135Z,13.44
2018-03-06T10:54:22.682Z,14.29
2018-03-06T10:55:26.347Z,14.81
2018-03-06T10:56:30.045Z,14.61
2018-03-06T10:57:33.636Z,14.48
2018-03-06T10:58:37.415Z,14.73
2018-03-06T10:59:41.570Z,15.30
2018-03-06T11:00:48.827Z,15.72
2018-03-06T11:01:56.965Z,15.33
2018-03-06T11:03:01.674Z,14.97
2018-03-06T11:04:05.128Z,14.95
2018-03-06T11:05:09.229Z,14.78
2018-03-06T11:06:14.236Z,14.81
2018-03-06T11:07:18.526Z,15.57
2018-03-06T11:08:24.667Z,15.29
2018-03-06T11:09:29.530Z,15.10
2018-03-06T11:10:34.384Z,15.05
2018-03-06T11:11:38.414Z,15.60
2018-03-06T11:12:42.339Z,16.00
2018-03-06T11:13:45.763Z,16.51
2018-03-06T11:14:49.258Z,16.55
2018-03-06T11:15:52.762Z,15.93
2018-03-06T11:16:58.456Z,16.33
2018-03-06T11:18:02.916Z,17.46
2018-03-06T11:19:06.764Z,17.90
2018-03-06T11:20:10.508Z,17.61
2018-03-06T11:21:14.187Z,17.03
2018-03-06T11:22:17.823Z,15.39
2018-03-06T11:23:21.461Z,15.19
2018-03-06T11:24:25.765Z,14.81
2018-03-06T11:25:29.918Z,15.30
2018-03-06T11:26:34.290Z,16.20
2018-03-06T11:27:38.958Z,15.89
2018-03-06T11:28:43.023Z,15.25
2018-03-06T11:29:46.616Z,15.39
2018-03-06T11:30:50.579Z,15.72
2018-03-06T11:31:54.043Z,16.35
2018-03-06T11:33:02.094Z,16.61
2018-03-06T11:34:05.504Z,15.11
2018-03-06T11:35:09.177Z,15.66
2018-03-06T11:36:14.670Z,16.11
2018-03-06T11:37:20.175Z,16.96
2018-03-06T11:38:24.120Z,16.59
2018-03-06T11:39:28.440Z,16.56
2018-03-06T11:40:33.569Z,15.70
2018-03-06T11:41:37.030Z,15.51
2018-03-06T11:42:40.584Z,15.57
2018-03-06T11:43:44.478Z,15.83
2018-03-06T11:44:47.987Z,16.49
2018-03-06T11:45:52.401Z,17.10
2018-03-06T11:46:56.800Z,17.11
2018-03-06T11:48:00.802Z,16.91
2018-03-06T11:49:04.362Z,17.65
2018-03-06T11:50:08.906Z,18.32
2018-03-06T11:51:12.421Z,18.10
2018-03-06T11:52:15.952Z,17.94
2018-03-06T11:53:20.164Z,18.09
2018-03-06T11:54:25.222Z,17.60
2018-03-06T11:55:29.154Z,16.81
2018-03-06T11:56:32.720Z,17.35
2018-03-06T11:57:36.256Z,17.92
2018-03-06T11:58:39.722Z,18.81
2018-03-06T11:59:43.114Z,18.61
2018-03-06T12:00:46.835Z,19.45
2018-03-06T12:01:51.268Z,17.94
2018-03-06T12:02:55.421Z,17.88
2018-03-06T12:03:59.297Z,17.49
2018-03-06T12:05:03.144Z,17.07
2018-03-06T12:06:06.549Z,17.00
2018-03-06T12:07:10.261Z,16.86
2018-03-06T12:08:15.169Z,16.82
2018-03-06T12:09:19.711Z,16.81
2018-03-06T12:10:23.900Z,17.81
2018-03-06T12:11:27.572Z,17.50
2018-03-06T12:12:30.912Z,17.40
2018-03-06T12:13:34.322Z,17.34
2018-03-06T12:14:38.465Z,18.10
2018-03-06T12:15:42.129Z,18.39
2018-03-06T12:16:45.645Z,18.35
2018-03-06T12:17:49.021Z,18.61
2018-03-06T12:18:52.634Z,19.25
2018-03-06T12:19:56.124Z,18.87
2018-03-06T12:21:00.043Z,17.00
2018-03-06T12:22:03.504Z,16.17
2018-03-06T12:23:06.926Z,16.88
2018-03-06T12:24:10.441Z,17.08
2018-03-06T12:25:14.606Z,17.91
2018-03-06T12:26:18.050Z,19.14
2018-03-06T12:27:21.854Z,18.51
2018-03-06T12:28:25.238Z,17.68
2018-03-06T12:29:28.635Z,16.39
2018-03-06T12:30:31.988Z,16.13
2018-03-06T12:31:35.365Z,15.79
2018-03-06T12:32:38.693Z,15.58
2018-03-06T12:33:42.688Z,15.67
2018-03-06T12:34:47.141Z,16.15
2018-03-06T12:35:50.998Z,16.78
2018-03-06T12:36:54.623Z,16.29
2018-03-06T12:37:58.607Z,17.05
2018-03-06T12:39:02.078Z,17.66
2018-03-06T12:40:06.090Z,18.32
2018-03-06T12:41:09.535Z,18.86
2018-03-06T12:42:13.860Z,19.04
2018-03-06T12:43:17.316Z,19.23
2018-03-06T12:44:20.797Z,19.39
2018-03-06T12:45:24.224Z,17.83
2018-03-06T12:46:27.929Z,17.69
2018-03-06T12:47:31.339Z,18.15
2018-03-06T12:48:34.779Z,17.85
2018-03-06T12:49:38.039Z,18.48
2018-03-06T12:50:41.416Z,19.04
2018-03-06T12:51:44.805Z,18.40
2018-03-06T12:52:48.433Z,17.38
2018-03-06T12:53:51.948Z,16.61
2018-03-06T12:54:55.388Z,15.91
2018-03-06T12:55:58.903Z,16.36
2018-03-06T12:57:02.353Z,16.85
2018-03-06T12:58:05.702Z,17.38
2018-03-06T12:59:09.630Z,16.91
2018-03-06T13:00:13.085Z,17.31
2018-03-06T13:01:16.490Z,17.88
2018-03-06T13:02:19.871Z,17.63
2018-03-06T13:03:23.286Z,16.70
2018-03-06T13:04:26.773Z,16.75
2018-03-06T13:05:30.597Z,16.90
2018-03-06T13:06:33.934Z,17.11
2018-03-06T13:07:37.291Z,18.02
2018-03-06T13:08:40.730Z,18.62
2018-03-06T13:09:44.227Z,18.44
2018-03-06T13:10:47.470Z,18.72
2018-03-06T13:11:51.195Z,19.16
2018-03-06T13:12:55.280Z,19.47
2018-03-06T13:13:59.430Z,19.61
2018-03-06T13:15:02.900Z,20.09
2018-03-06T13:16:06.610Z,20.40
2018-03-06T13:17:11.138Z,20.36
2018-03-06T13:18:16.019Z,20.31
2018-03-06T13:19:19.334Z,20.33
2018-03-06T13:20:22.671Z,20.17
2018-03-06T13:21:26.251Z,19.38
2018-03-06T13:22:29.535Z,19.11
2018-03-06T13:23:33.236Z,19.16
2018-03-06T13:24:36.625Z,19.29
2018-03-06T13:25:39.933Z,19.20
2018-03-06T13:26:43.287Z,18.84
2018-03-06T13:27:46.627Z,18.88
2018-03-06T13:28:49.854Z,19.26
2018-03-06T13:29:53.647Z,19.38
2018-03-06T13:30:56.940Z,18.72
2018-03-06T13:32:00.339Z,19.05
2018-03-06T13:33:03.636Z,19.35
2018-03-06T13:34:07.038Z,19.32
2018-03-06T13:35:10.464Z,19.10
2018-03-06T13:36:14.261Z,19.00
2018-03-06T13:37:17.539Z,17.86
2018-03-06T13:38:20.882Z,16.69
2018-03-06T13:39:24.290Z,16.86
2018-03-06T13:40:27.801Z,16.51
2018-03-06T13:41:31.029Z,16.45
2018-03-06T13:42:34.557Z,16.98
2018-03-06T13:43:37.908Z,16.95
2018-03-06T13:44:41.193Z,17.45
2018-03-06T13:45:44.585Z,17.84
2018-03-06T13:46:48.054Z,18.42
2018-03-06T13:47:51.452Z,18.50
2018-03-06T13:48:55.091Z,18.18
2018-03-06T13:49:58.320Z,18.74
2018-03-06T13:51:01.629Z,18.95
2018-03-06T13:52:04.968Z,18.21
2018-03-06T13:53:08.233Z,17.52
2018-03-06T13:54:11.537Z,17.89
2018-03-06T13:55:15.081Z,18.14
2018-03-06T13:56:18.440Z,18.41
2018-03-06T13:57:22.050Z,18.67
2018-03-06T13:58:26.617Z,18.78
2018-03-06T13:59:30.097Z,18.39
2018-03-06T14:00:33.415Z,17.80
2018-03-06T14:01:37.001Z,17.44
2018-03-06T14:02:40.650Z,17.12
2018-03-06T14:03:44.993Z,16.99
2018-03-06T14:04:49.729Z,17.07
2018-03-06T14:05:53.152Z,16.95
2018-03-06T14:06:56.449Z,16.61
2018-03-06T14:08:00.079Z,17.59
2018-03-06T14:09:03.411Z,18.45
2018-03-06T14:10:07.534Z,18.95
2018-03-06T14:11:11.520Z,19.03
2018-03-06T14:12:15.149Z,19.10
2018-03-06T14:13:18.536Z,19.22
2018-03-06T14:14:22.237Z,18.53
2018-03-06T14:15:25.609Z,17.75
2018-03-06T14:16:29.408Z,18.04
2018-03-06T14:17:33.805Z,18.46
2018-03-06T14:18:37.600Z,19.02
2018-03-06T14:19:40.852Z,19.56
2018-03-06T14:20:44.438Z,18.10
2018-03-06T14:21:47.745Z,17.27
2018-03-06T14:22:51.794Z,16.74
2018-03-06T14:23:56.624Z,16.68
2018-03-06T14:25:00.650Z,17.31
2018-03-06T14:26:04.128Z,17.52
2018-03-06T14:27:07.577Z,17.72
2018-03-06T14:28:10.921Z,17.26
2018-03-06T14:29:14.441Z,16.04
2018-03-06T14:30:20.887Z,15.46
2018-03-06T14:31:25.390Z,15.53
2018-03-06T14:32:30.276Z,15.56
2018-03-06T14:33:34.834Z,15.37
2018-03-06T14:34:38.245Z,15.99
2018-03-06T14:35:41.533Z,16.43
2018-03-06T14:36:44.829Z,16.41
2018-03-06T14:37:48.252Z,16.43
2018-03-06T14:38:52.606Z,16.64
2018-03-06T14:39:56.734Z,16.25
2018-03-06T14:41:00.265Z,16.67
2018-03-06T14:42:03.683Z,16.79
2018-03-06T14:43:07.128Z,17.34
2018-03-06T14:44:10.496Z,17.39
2018-03-06T14:45:13.928Z,16.96
2018-03-06T14:46:18.930Z,16.62
2018-03-06T14:47:23.534Z,16.83
2018-03-06T14:48:28.289Z,16.78
2018-03-06T14:49:31.825Z,16.87
2018-03-06T14:50:35.097Z,16.95
2018-03-06T14:51:38.446Z,16.28
2018-03-06T14:52:42.345Z,16.23
2018-03-06T14:53:46.451Z,16.87
2018-03-06T14:54:50.961Z,18.07
2018-03-06T14:55:54.860Z,17.84
2018-03-06T14:56:58.245Z,17.28
2018-03-06T14:58:01.556Z,17.72
2018-03-06T14:59:06.175Z,17.57
2018-03-06T15:00:09.514Z,16.73
2018-03-06T15:01:13.256Z,16.30
2018-03-06T15:02:17.387Z,16.27
2018-03-06T15:03:20.908Z,16.65
2018-03-06T15:04:24.615Z,16.40
2018-03-06T15:05:27.943Z,16.31